Terminal Aerodrome Forecast
Issued by NWS Charleston, WV

Home | Current Version | Previous Version | Text Only | Print | Product List | Glossary On
Versions: 1 2 3 4 5 6 7 8 9 10 11 12 13 14 15 16 17 18 19 20
490
FTUS41 KRLX 091120
TAFBKW
TAF
KBKW 091120Z 0912/1012 28010G18KT 4SM -SHSN BR BKN008 OVC015
      TEMPO 0912/0916 6SM -SHSN BKN015
     FM091600 28010G15KT P6SM -SHSN OVC025
     FM092200 28011G19KT 4SM -SHSN OVC015=

USA.gov is the U.S. government's official web portal to all federal, state and local government web resources and services.